< < Back
Terminal Aerodrome Forecast


Current Version              Previous Versions:   1  2  3  4  5  6  7  8  9  

Terminal Aerodrome Forecast

170
FTUS44 KBMX 112342 RRA
TAFANB
TAF
KANB 112342Z 1200/1224 00000KT P6SM SCT250=



Latest METAR

418
SAUS70 KWBC 120100 RRC
MTRANB
METAR KANB 120053Z AUTO 05003KT 10SM CLR 09/M04 A3017 RMK AO2 SLP225
T00941039


USA.gov is the U.S. government's official web portal to all federal, state and local government web resources and services.